OLBA/BEY METAR and TAF weather

Enter ICAO airport designator
Station Type Date Time Source
OLBA METAR 2019/06/17 15:00 UTC NOAA

OLBA 171500Z 23011KT 8000 SCT026 27/21 Q1011 NOSIG


Station Type Date Time Source
OLBA Decoded METAR 2019/06/17 15:00 UTC NOAA

Beyrouth Aeroport , Lebanon (OLBA) 33-49N 035-29E 19M
Jun 17, 2019 - 11:00 AM EDT / 2019.06.17 1500 UTC
Wind: from the SW (230 degrees) at 13 MPH (11 KT):0
Visibility: 4 mile(s):0
Sky conditions: partly cloudy
Temperature: 80 F (27 C)
Dew Point: 69 F (21 C)
Relative Humidity: 69%
Pressure (altimeter): 29.85 in. Hg (1011 hPa)
ob: OLBA 171500Z 23011KT 8000 SCT026 27/21 Q1011 NOSIG
cycle: 15

Station Type Date Time Source
OLBA TAF 2019/06/17 12:00 UTC NOAA

TAF OLBA 171000Z 1712/1818 20015KT 8000 SCT026
TEMPO 1718/1806 5000 BR
BECMG 1809/1812 20020KT 8000 BKN026

Example: see airport list